sensor_id;sensor_type;location;lat;lon;timestamp;P1;durP1;ratioP1;P2;durP2;ratioP2
14688;SDS011;7432;48.728;9.154;2023-03-13T00:02:03;9.63;;;5.23;;
14688;SDS011;7432;48.728;9.154;2023-03-13T00:04:29;9.57;;;5.10;;
14688;SDS011;7432;48.728;9.154;2023-03-13T00:06:56;10.17;;;5.23;;
14688;SDS011;7432;48.728;9.154;2023-03-13T00:09:22;11.53;;;5.67;;
14688;SDS011;7432;48.728;9.154;2023-03-13T00:11:50;11.60;;;5.80;;
14688;SDS011;7432;48.728;9.154;2023-03-13T00:14:16;8.50;;;5.43;;
14688;SDS011;7432;48.728;9.154;2023-03-13T00:16:42;12.10;;;6.20;;
14688;SDS011;7432;48.728;9.154;2023-03-13T00:19:09;12.77;;;6.17;;
14688;SDS011;7432;48.728;9.154;2023-03-13T00:21:35;12.57;;;5.87;;
14688;SDS011;7432;48.728;9.154;2023-03-13T00:24:02;9.37;;;5.67;;
14688;SDS011;7432;48.728;9.154;2023-03-13T00:26:29;11.40;;;5.93;;
14688;SDS011;7432;48.728;9.154;2023-03-13T00:28:57;12.57;;;5.73;;
14688;SDS011;7432;48.728;9.154;2023-03-13T00:31:24;10.13;;;5.57;;
14688;SDS011;7432;48.728;9.154;2023-03-13T00:33:54;10.93;;;5.83;;
14688;SDS011;7432;48.728;9.154;2023-03-13T00:36:23;12.70;;;6.43;;
14688;SDS011;7432;48.728;9.154;2023-03-13T00:38:51;14.87;;;6.40;;
14688;SDS011;7432;48.728;9.154;2023-03-13T00:41:18;12.03;;;5.53;;
14688;SDS011;7432;48.728;9.154;2023-03-13T00:43:46;9.50;;;5.10;;
14688;SDS011;7432;48.728;9.154;2023-03-13T00:46:15;9.60;;;5.33;;
14688;SDS011;7432;48.728;9.154;2023-03-13T00:48:43;8.73;;;5.23;;
14688;SDS011;7432;48.728;9.154;2023-03-13T00:51:10;11.63;;;5.77;;
14688;SDS011;7432;48.728;9.154;2023-03-13T00:53:37;11.57;;;5.47;;
14688;SDS011;7432;48.728;9.154;2023-03-13T00:56:04;8.43;;;5.03;;
14688;SDS011;7432;48.728;9.154;2023-03-13T00:58:33;11.77;;;5.73;;
14688;SDS011;7432;48.728;9.154;2023-03-13T01:01:07;10.33;;;5.43;;
14688;SDS011;7432;48.728;9.154;2023-03-13T01:03:37;9.30;;;5.20;;
14688;SDS011;7432;48.728;9.154;2023-03-13T01:06:05;12.17;;;5.57;;
14688;SDS011;7432;48.728;9.154;2023-03-13T01:08:33;7.50;;;4.90;;
14688;SDS011;7432;48.728;9.154;2023-03-13T01:11:00;9.93;;;5.33;;
14688;SDS011;7432;48.728;9.154;2023-03-13T01:13:28;10.27;;;5.33;;
14688;SDS011;7432;48.728;9.154;2023-03-13T01:15:56;10.67;;;5.10;;
14688;SDS011;7432;48.728;9.154;2023-03-13T01:18:23;11.87;;;5.13;;
14688;SDS011;7432;48.728;9.154;2023-03-13T01:20:51;10.53;;;5.20;;
14688;SDS011;7432;48.728;9.154;2023-03-13T01:23:18;8.80;;;4.87;;
14688;SDS011;7432;48.728;9.154;2023-03-13T01:25:44;9.87;;;4.90;;
14688;SDS011;7432;48.728;9.154;2023-03-13T01:28:10;12.17;;;5.17;;
14688;SDS011;7432;48.728;9.154;2023-03-13T01:30:37;9.43;;;4.87;;
14688;SDS011;7432;48.728;9.154;2023-03-13T01:33:03;8.00;;;4.67;;
14688;SDS011;7432;48.728;9.154;2023-03-13T01:35:30;10.13;;;4.90;;
14688;SDS011;7432;48.728;9.154;2023-03-13T01:37:57;9.63;;;4.60;;
14688;SDS011;7432;48.728;9.154;2023-03-13T01:40:24;7.60;;;4.93;;
14688;SDS011;7432;48.728;9.154;2023-03-13T01:42:51;9.37;;;5.10;;
14688;SDS011;7432;48.728;9.154;2023-03-13T01:48:22;6.30;;;4.53;;
14688;SDS011;7432;48.728;9.154;2023-03-13T01:50:52;10.70;;;4.80;;
14688;SDS011;7432;48.728;9.154;2023-03-13T01:53:21;9.83;;;5.27;;
14688;SDS011;7432;48.728;9.154;2023-03-13T01:55:48;9.00;;;4.77;;
14688;SDS011;7432;48.728;9.154;2023-03-13T01:58:15;7.50;;;4.80;;
14688;SDS011;7432;48.728;9.154;2023-03-13T02:00:42;11.03;;;4.90;;
14688;SDS011;7432;48.728;9.154;2023-03-13T02:03:10;13.60;;;5.27;;
14688;SDS011;7432;48.728;9.154;2023-03-13T02:05:39;9.60;;;4.90;;
14688;SDS011;7432;48.728;9.154;2023-03-13T02:08:09;7.83;;;4.40;;
14688;SDS011;7432;48.728;9.154;2023-03-13T02:10:47;8.50;;;4.97;;
14688;SDS011;7432;48.728;9.154;2023-03-13T02:13:16;7.93;;;4.83;;
14688;SDS011;7432;48.728;9.154;2023-03-13T02:15:43;7.73;;;4.33;;
14688;SDS011;7432;48.728;9.154;2023-03-13T02:18:10;10.10;;;4.17;;
14688;SDS011;7432;48.728;9.154;2023-03-13T02:20:37;11.00;;;4.80;;
14688;SDS011;7432;48.728;9.154;2023-03-13T02:23:06;4.40;;;4.00;;
14688;SDS011;7432;48.728;9.154;2023-03-13T02:25:41;6.53;;;4.30;;
14688;SDS011;7432;48.728;9.154;2023-03-13T02:28:10;6.30;;;4.10;;
14688;SDS011;7432;48.728;9.154;2023-03-13T02:30:41;8.13;;;4.50;;
14688;SDS011;7432;48.728;9.154;2023-03-13T02:33:09;6.80;;;4.17;;
14688;SDS011;7432;48.728;9.154;2023-03-13T02:35:36;5.70;;;3.87;;
14688;SDS011;7432;48.728;9.154;2023-03-13T02:38:04;6.97;;;4.10;;
14688;SDS011;7432;48.728;9.154;2023-03-13T02:40:34;4.83;;;3.83;;
14688;SDS011;7432;48.728;9.154;2023-03-13T02:43:05;7.17;;;3.50;;
14688;SDS011;7432;48.728;9.154;2023-03-13T02:45:34;7.23;;;4.23;;
14688;SDS011;7432;48.728;9.154;2023-03-13T02:48:00;5.30;;;3.80;;
14688;SDS011;7432;48.728;9.154;2023-03-13T02:50:27;4.53;;;3.50;;
14688;SDS011;7432;48.728;9.154;2023-03-13T02:52:54;4.27;;;3.63;;
14688;SDS011;7432;48.728;9.154;2023-03-13T02:55:24;4.03;;;3.73;;
14688;SDS011;7432;48.728;9.154;2023-03-13T02:57:53;5.10;;;4.30;;
14688;SDS011;7432;48.728;9.154;2023-03-13T03:00:21;4.77;;;3.90;;
14688;SDS011;7432;48.728;9.154;2023-03-13T03:02:50;4.87;;;3.70;;
14688;SDS011;7432;48.728;9.154;2023-03-13T03:05:18;9.43;;;4.10;;
14688;SDS011;7432;48.728;9.154;2023-03-13T03:07:46;6.23;;;4.20;;
14688;SDS011;7432;48.728;9.154;2023-03-13T03:10:12;4.83;;;3.53;;
14688;SDS011;7432;48.728;9.154;2023-03-13T03:12:39;4.23;;;3.60;;
14688;SDS011;7432;48.728;9.154;2023-03-13T03:15:06;4.70;;;3.93;;
14688;SDS011;7432;48.728;9.154;2023-03-13T03:17:34;5.60;;;3.70;;
14688;SDS011;7432;48.728;9.154;2023-03-13T03:20:01;5.90;;;4.00;;
14688;SDS011;7432;48.728;9.154;2023-03-13T03:22:28;4.17;;;3.70;;
14688;SDS011;7432;48.728;9.154;2023-03-13T03:24:55;5.03;;;4.13;;
14688;SDS011;7432;48.728;9.154;2023-03-13T03:27:21;6.57;;;3.90;;
14688;SDS011;7432;48.728;9.154;2023-03-13T03:29:47;5.93;;;4.00;;
14688;SDS011;7432;48.728;9.154;2023-03-13T03:32:14;7.13;;;3.97;;
14688;SDS011;7432;48.728;9.154;2023-03-13T03:34:41;4.37;;;3.80;;
14688;SDS011;7432;48.728;9.154;2023-03-13T03:37:08;3.60;;;3.17;;
14688;SDS011;7432;48.728;9.154;2023-03-13T03:39:34;3.80;;;3.40;;
14688;SDS011;7432;48.728;9.154;2023-03-13T03:42:01;4.30;;;3.30;;
14688;SDS011;7432;48.728;9.154;2023-03-13T03:44:28;4.67;;;3.50;;
14688;SDS011;7432;48.728;9.154;2023-03-13T03:46:55;5.50;;;3.77;;
14688;SDS011;7432;48.728;9.154;2023-03-13T03:49:21;5.23;;;3.50;;
14688;SDS011;7432;48.728;9.154;2023-03-13T03:51:49;5.43;;;4.30;;
14688;SDS011;7432;48.728;9.154;2023-03-13T03:54:15;3.90;;;3.50;;
14688;SDS011;7432;48.728;9.154;2023-03-13T03:56:41;3.67;;;3.30;;
14688;SDS011;7432;48.728;9.154;2023-03-13T03:59:08;3.80;;;3.50;;
14688;SDS011;7432;48.728;9.154;2023-03-13T04:01:34;4.67;;;3.47;;
14688;SDS011;7432;48.728;9.154;2023-03-13T04:04:00;3.80;;;3.40;;
14688;SDS011;7432;48.728;9.154;2023-03-13T04:06:27;5.20;;;3.80;;
14688;SDS011;7432;48.728;9.154;2023-03-13T04:08:54;5.70;;;3.20;;
14688;SDS011;7432;48.728;9.154;2023-03-13T04:11:21;3.87;;;3.57;;
14688;SDS011;7432;48.728;9.154;2023-03-13T04:13:47;5.53;;;3.50;;
14688;SDS011;7432;48.728;9.154;2023-03-13T04:16:13;4.60;;;3.60;;
14688;SDS011;7432;48.728;9.154;2023-03-13T04:18:40;4.37;;;3.47;;
14688;SDS011;7432;48.728;9.154;2023-03-13T04:21:06;3.83;;;3.53;;
14688;SDS011;7432;48.728;9.154;2023-03-13T04:23:32;2.97;;;2.63;;
14688;SDS011;7432;48.728;9.154;2023-03-13T04:26:00;3.97;;;3.67;;
14688;SDS011;7432;48.728;9.154;2023-03-13T04:28:27;3.90;;;3.30;;
14688;SDS011;7432;48.728;9.154;2023-03-13T04:30:53;3.50;;;3.20;;
14688;SDS011;7432;48.728;9.154;2023-03-13T04:33:21;3.13;;;2.90;;
14688;SDS011;7432;48.728;9.154;2023-03-13T04:35:47;3.47;;;3.27;;
14688;SDS011;7432;48.728;9.154;2023-03-13T04:38:14;3.33;;;3.13;;
14688;SDS011;7432;48.728;9.154;2023-03-13T04:40:40;3.97;;;3.23;;
14688;SDS011;7432;48.728;9.154;2023-03-13T04:43:08;3.47;;;3.27;;
14688;SDS011;7432;48.728;9.154;2023-03-13T04:45:34;3.33;;;2.93;;
14688;SDS011;7432;48.728;9.154;2023-03-13T04:48:01;3.40;;;3.20;;
14688;SDS011;7432;48.728;9.154;2023-03-13T04:50:27;3.00;;;2.80;;
14688;SDS011;7432;48.728;9.154;2023-03-13T04:52:53;3.67;;;3.30;;
14688;SDS011;7432;48.728;9.154;2023-03-13T04:55:20;3.13;;;2.93;;
14688;SDS011;7432;48.728;9.154;2023-03-13T04:57:46;3.40;;;3.20;;
14688;SDS011;7432;48.728;9.154;2023-03-13T05:00:14;3.37;;;3.07;;
14688;SDS011;7432;48.728;9.154;2023-03-13T05:02:41;3.10;;;2.90;;
14688;SDS011;7432;48.728;9.154;2023-03-13T05:05:08;3.87;;;3.10;;
14688;SDS011;7432;48.728;9.154;2023-03-13T05:07:34;3.40;;;3.20;;
14688;SDS011;7432;48.728;9.154;2023-03-13T05:10:00;3.40;;;3.10;;
14688;SDS011;7432;48.728;9.154;2023-03-13T05:12:27;3.60;;;3.40;;
14688;SDS011;7432;48.728;9.154;2023-03-13T05:14:53;3.57;;;3.30;;
14688;SDS011;7432;48.728;9.154;2023-03-13T05:17:21;5.53;;;3.50;;
14688;SDS011;7432;48.728;9.154;2023-03-13T05:19:47;3.40;;;3.10;;
14688;SDS011;7432;48.728;9.154;2023-03-13T05:22:13;3.50;;;3.20;;
14688;SDS011;7432;48.728;9.154;2023-03-13T05:24:40;3.30;;;3.10;;
14688;SDS011;7432;48.728;9.154;2023-03-13T05:27:06;3.73;;;3.53;;
14688;SDS011;7432;48.728;9.154;2023-03-13T05:29:33;3.63;;;3.33;;
14688;SDS011;7432;48.728;9.154;2023-03-13T05:31:59;3.50;;;3.20;;
14688;SDS011;7432;48.728;9.154;2023-03-13T05:34:27;3.50;;;3.20;;
14688;SDS011;7432;48.728;9.154;2023-03-13T05:36:53;3.37;;;3.07;;
14688;SDS011;7432;48.728;9.154;2023-03-13T05:39:19;4.10;;;2.70;;
14688;SDS011;7432;48.728;9.154;2023-03-13T05:41:46;3.80;;;3.50;;
14688;SDS011;7432;48.728;9.154;2023-03-13T05:44:12;3.27;;;3.07;;
14688;SDS011;7432;48.728;9.154;2023-03-13T05:46:38;2.83;;;2.63;;
14688;SDS011;7432;48.728;9.154;2023-03-13T05:49:05;3.20;;;3.00;;
14688;SDS011;7432;48.728;9.154;2023-03-13T05:51:33;3.20;;;3.00;;
14688;SDS011;7432;48.728;9.154;2023-03-13T05:53:59;3.13;;;2.93;;
14688;SDS011;7432;48.728;9.154;2023-03-13T05:56:26;2.50;;;2.17;;
14688;SDS011;7432;48.728;9.154;2023-03-13T05:58:52;3.30;;;3.10;;
14688;SDS011;7432;48.728;9.154;2023-03-13T06:01:18;3.10;;;2.90;;
14688;SDS011;7432;48.728;9.154;2023-03-13T06:03:45;3.03;;;2.93;;
14688;SDS011;7432;48.728;9.154;2023-03-13T06:06:11;3.30;;;3.00;;
14688;SDS011;7432;48.728;9.154;2023-03-13T06:08:39;3.23;;;3.03;;
14688;SDS011;7432;48.728;9.154;2023-03-13T06:11:05;3.17;;;2.97;;
14688;SDS011;7432;48.728;9.154;2023-03-13T06:13:32;2.90;;;2.70;;
14688;SDS011;7432;48.728;9.154;2023-03-13T06:15:58;3.40;;;3.27;;
14688;SDS011;7432;48.728;9.154;2023-03-13T06:18:25;3.10;;;2.87;;
14688;SDS011;7432;48.728;9.154;2023-03-13T06:20:55;3.10;;;2.63;;
14688;SDS011;7432;48.728;9.154;2023-03-13T06:23:22;2.77;;;2.67;;
14688;SDS011;7432;48.728;9.154;2023-03-13T06:25:50;3.00;;;2.80;;
14688;SDS011;7432;48.728;9.154;2023-03-13T06:28:17;3.03;;;2.77;;
14688;SDS011;7432;48.728;9.154;2023-03-13T06:30:43;2.90;;;2.80;;
14688;SDS011;7432;48.728;9.154;2023-03-13T06:33:09;3.23;;;3.03;;
14688;SDS011;7432;48.728;9.154;2023-03-13T06:35:38;2.63;;;2.53;;
14688;SDS011;7432;48.728;9.154;2023-03-13T06:38:05;3.00;;;2.80;;
14688;SDS011;7432;48.728;9.154;2023-03-13T06:40:31;3.57;;;2.67;;
14688;SDS011;7432;48.728;9.154;2023-03-13T06:42:59;3.13;;;2.93;;
14688;SDS011;7432;48.728;9.154;2023-03-13T06:45:25;3.30;;;3.10;;
14688;SDS011;7432;48.728;9.154;2023-03-13T06:47:51;3.13;;;2.93;;
14688;SDS011;7432;48.728;9.154;2023-03-13T06:50:18;3.20;;;3.00;;
14688;SDS011;7432;48.728;9.154;2023-03-13T06:52:45;3.10;;;2.90;;
14688;SDS011;7432;48.728;9.154;2023-03-13T06:55:12;3.00;;;2.80;;
14688;SDS011;7432;48.728;9.154;2023-03-13T06:57:39;2.73;;;2.63;;
14688;SDS011;7432;48.728;9.154;2023-03-13T07:00:08;3.30;;;3.10;;
14688;SDS011;7432;48.728;9.154;2023-03-13T07:02:36;3.23;;;3.03;;
14688;SDS011;7432;48.728;9.154;2023-03-13T07:05:02;4.37;;;3.20;;
14688;SDS011;7432;48.728;9.154;2023-03-13T07:07:29;3.60;;;3.40;;
14688;SDS011;7432;48.728;9.154;2023-03-13T07:09:56;3.03;;;2.83;;
14688;SDS011;7432;48.728;9.154;2023-03-13T07:12:23;3.17;;;3.00;;
14688;SDS011;7432;48.728;9.154;2023-03-13T07:14:49;3.40;;;3.20;;
14688;SDS011;7432;48.728;9.154;2023-03-13T07:17:17;3.10;;;2.90;;
14688;SDS011;7432;48.728;9.154;2023-03-13T07:19:44;3.50;;;3.30;;
14688;SDS011;7432;48.728;9.154;2023-03-13T07:22:10;2.93;;;2.73;;
14688;SDS011;7432;48.728;9.154;2023-03-13T07:24:36;3.07;;;2.87;;
14688;SDS011;7432;48.728;9.154;2023-03-13T07:27:03;3.13;;;2.93;;
14688;SDS011;7432;48.728;9.154;2023-03-13T07:29:29;3.20;;;3.00;;
14688;SDS011;7432;48.728;9.154;2023-03-13T07:31:56;3.00;;;2.90;;
14688;SDS011;7432;48.728;9.154;2023-03-13T07:34:23;3.47;;;2.83;;
14688;SDS011;7432;48.728;9.154;2023-03-13T07:36:50;2.97;;;2.80;;
14688;SDS011;7432;48.728;9.154;2023-03-13T07:39:16;3.17;;;3.07;;
14688;SDS011;7432;48.728;9.154;2023-03-13T07:41:42;3.50;;;3.20;;
14688;SDS011;7432;48.728;9.154;2023-03-13T07:44:09;3.33;;;3.13;;
14688;SDS011;7432;48.728;9.154;2023-03-13T07:46:35;3.17;;;2.97;;
14688;SDS011;7432;48.728;9.154;2023-03-13T07:49:02;3.20;;;3.00;;
14688;SDS011;7432;48.728;9.154;2023-03-13T07:51:29;3.33;;;3.03;;
14688;SDS011;7432;48.728;9.154;2023-03-13T07:53:56;2.93;;;2.73;;
14688;SDS011;7432;48.728;9.154;2023-03-13T07:56:22;3.10;;;2.90;;
14688;SDS011;7432;48.728;9.154;2023-03-13T07:58:49;3.07;;;2.87;;
14688;SDS011;7432;48.728;9.154;2023-03-13T08:01:17;3.33;;;3.13;;
14688;SDS011;7432;48.728;9.154;2023-03-13T08:03:45;3.03;;;2.83;;
14688;SDS011;7432;48.728;9.154;2023-03-13T08:06:15;3.00;;;2.90;;
14688;SDS011;7432;48.728;9.154;2023-03-13T08:08:44;3.43;;;3.20;;
14688;SDS011;7432;48.728;9.154;2023-03-13T08:11:11;3.10;;;3.00;;
14688;SDS011;7432;48.728;9.154;2023-03-13T08:13:39;3.40;;;3.20;;
14688;SDS011;7432;48.728;9.154;2023-03-13T08:16:06;3.03;;;2.90;;
14688;SDS011;7432;48.728;9.154;2023-03-13T08:18:35;4.43;;;3.13;;
14688;SDS011;7432;48.728;9.154;2023-03-13T08:21:02;3.80;;;3.50;;
14688;SDS011;7432;48.728;9.154;2023-03-13T08:23:30;3.00;;;2.90;;
14688;SDS011;7432;48.728;9.154;2023-03-13T08:26:02;4.13;;;3.40;;
14688;SDS011;7432;48.728;9.154;2023-03-13T08:28:29;3.50;;;3.07;;
14688;SDS011;7432;48.728;9.154;2023-03-13T08:30:56;3.50;;;3.30;;
14688;SDS011;7432;48.728;9.154;2023-03-13T08:33:22;3.70;;;3.40;;
14688;SDS011;7432;48.728;9.154;2023-03-13T08:35:48;3.80;;;3.60;;
14688;SDS011;7432;48.728;9.154;2023-03-13T08:38:15;3.10;;;2.90;;
14688;SDS011;7432;48.728;9.154;2023-03-13T08:40:42;2.97;;;2.77;;
14688;SDS011;7432;48.728;9.154;2023-03-13T08:43:10;3.13;;;2.93;;
14688;SDS011;7432;48.728;9.154;2023-03-13T08:45:36;3.90;;;3.70;;
14688;SDS011;7432;48.728;9.154;2023-03-13T08:48:03;3.77;;;3.57;;
14688;SDS011;7432;48.728;9.154;2023-03-13T08:50:29;3.50;;;3.30;;
14688;SDS011;7432;48.728;9.154;2023-03-13T08:52:55;3.83;;;3.53;;
14688;SDS011;7432;48.728;9.154;2023-03-13T08:55:22;3.73;;;3.53;;
14688;SDS011;7432;48.728;9.154;2023-03-13T08:57:48;5.30;;;3.90;;
14688;SDS011;7432;48.728;9.154;2023-03-13T09:00:16;4.00;;;3.73;;
14688;SDS011;7432;48.728;9.154;2023-03-13T09:02:43;4.00;;;3.80;;
14688;SDS011;7432;48.728;9.154;2023-03-13T09:05:09;3.70;;;3.50;;
14688;SDS011;7432;48.728;9.154;2023-03-13T09:07:36;4.00;;;3.70;;
14688;SDS011;7432;48.728;9.154;2023-03-13T09:10:02;3.67;;;3.47;;
14688;SDS011;7432;48.728;9.154;2023-03-13T09:12:29;3.17;;;2.93;;
14688;SDS011;7432;48.728;9.154;2023-03-13T09:14:56;3.87;;;3.57;;
14688;SDS011;7432;48.728;9.154;2023-03-13T09:17:23;3.70;;;3.50;;
14688;SDS011;7432;48.728;9.154;2023-03-13T09:19:51;4.17;;;3.87;;
14688;SDS011;7432;48.728;9.154;2023-03-13T09:22:17;4.00;;;3.80;;
14688;SDS011;7432;48.728;9.154;2023-03-13T09:24:43;3.80;;;3.57;;
14688;SDS011;7432;48.728;9.154;2023-03-13T09:27:10;3.90;;;3.50;;
14688;SDS011;7432;48.728;9.154;2023-03-13T09:29:36;4.77;;;4.47;;
14688;SDS011;7432;48.728;9.154;2023-03-13T09:32:05;4.20;;;4.00;;
14688;SDS011;7432;48.728;9.154;2023-03-13T09:34:33;4.40;;;4.00;;
14688;SDS011;7432;48.728;9.154;2023-03-13T09:37:00;3.90;;;3.60;;
14688;SDS011;7432;48.728;9.154;2023-03-13T09:39:26;4.10;;;3.90;;
14688;SDS011;7432;48.728;9.154;2023-03-13T09:41:53;3.90;;;3.70;;
14688;SDS011;7432;48.728;9.154;2023-03-13T09:44:27;3.67;;;3.47;;
14688;SDS011;7432;48.728;9.154;2023-03-13T09:46:58;4.40;;;4.00;;
14688;SDS011;7432;48.728;9.154;2023-03-13T09:49:30;5.13;;;3.47;;
14688;SDS011;7432;48.728;9.154;2023-03-13T09:52:08;4.00;;;3.67;;
14688;SDS011;7432;48.728;9.154;2023-03-13T09:54:41;3.90;;;3.70;;
14688;SDS011;7432;48.728;9.154;2023-03-13T09:57:13;3.80;;;3.60;;
14688;SDS011;7432;48.728;9.154;2023-03-13T09:59:44;4.90;;;4.60;;
14688;SDS011;7432;48.728;9.154;2023-03-13T10:02:18;4.37;;;4.03;;
14688;SDS011;7432;48.728;9.154;2023-03-13T10:04:52;4.37;;;4.07;;
14688;SDS011;7432;48.728;9.154;2023-03-13T10:07:24;5.03;;;4.53;;
14688;SDS011;7432;48.728;9.154;2023-03-13T10:09:50;5.00;;;4.70;;
14688;SDS011;7432;48.728;9.154;2023-03-13T10:12:18;4.70;;;4.30;;
14688;SDS011;7432;48.728;9.154;2023-03-13T10:14:48;4.87;;;4.50;;
14688;SDS011;7432;48.728;9.154;2023-03-13T10:17:26;5.27;;;4.77;;
14688;SDS011;7432;48.728;9.154;2023-03-13T10:19:58;4.70;;;4.27;;
14688;SDS011;7432;48.728;9.154;2023-03-13T10:22:33;5.47;;;4.97;;
14688;SDS011;7432;48.728;9.154;2023-03-13T10:25:02;5.70;;;4.80;;
14688;SDS011;7432;48.728;9.154;2023-03-13T10:27:41;5.00;;;4.70;;
14688;SDS011;7432;48.728;9.154;2023-03-13T10:30:11;5.80;;;4.93;;
14688;SDS011;7432;48.728;9.154;2023-03-13T10:32:47;4.97;;;4.60;;
14688;SDS011;7432;48.728;9.154;2023-03-13T10:35:20;5.07;;;4.77;;
14688;SDS011;7432;48.728;9.154;2023-03-13T10:37:48;5.07;;;4.57;;
14688;SDS011;7432;48.728;9.154;2023-03-13T10:40:19;5.27;;;4.83;;
14688;SDS011;7432;48.728;9.154;2023-03-13T10:42:47;5.50;;;5.10;;
14688;SDS011;7432;48.728;9.154;2023-03-13T10:45:17;5.47;;;5.07;;
14688;SDS011;7432;48.728;9.154;2023-03-13T10:47:45;5.03;;;4.73;;
14688;SDS011;7432;48.728;9.154;2023-03-13T10:50:22;5.13;;;4.77;;
14688;SDS011;7432;48.728;9.154;2023-03-13T10:52:50;5.73;;;5.23;;
14688;SDS011;7432;48.728;9.154;2023-03-13T10:55:17;5.37;;;4.90;;
14688;SDS011;7432;48.728;9.154;2023-03-13T10:57:51;5.33;;;4.73;;
14688;SDS011;7432;48.728;9.154;2023-03-13T11:00:32;5.13;;;4.73;;
14688;SDS011;7432;48.728;9.154;2023-03-13T11:03:00;5.47;;;5.13;;
14688;SDS011;7432;48.728;9.154;2023-03-13T11:08:21;5.47;;;5.18;;
14688;SDS011;7432;48.728;9.154;2023-03-13T11:10:50;5.77;;;5.20;;
14688;SDS011;7432;48.728;9.154;2023-03-13T11:13:32;5.73;;;5.33;;
14688;SDS011;7432;48.728;9.154;2023-03-13T11:16:02;5.93;;;5.43;;
14688;SDS011;7432;48.728;9.154;2023-03-13T11:18:38;5.30;;;4.95;;
14688;SDS011;7432;48.728;9.154;2023-03-13T11:21:12;5.60;;;5.30;;
14688;SDS011;7432;48.728;9.154;2023-03-13T11:23:46;5.80;;;5.40;;
14688;SDS011;7432;48.728;9.154;2023-03-13T11:26:21;5.47;;;5.17;;
14688;SDS011;7432;48.728;9.154;2023-03-13T11:28:56;5.37;;;4.93;;
14688;SDS011;7432;48.728;9.154;2023-03-13T11:31:27;5.80;;;5.40;;
14688;SDS011;7432;48.728;9.154;2023-03-13T11:33:58;6.07;;;5.60;;
14688;SDS011;7432;48.728;9.154;2023-03-13T11:36:33;5.87;;;5.47;;
14688;SDS011;7432;48.728;9.154;2023-03-13T11:39:02;5.93;;;5.47;;
14688;SDS011;7432;48.728;9.154;2023-03-13T11:41:46;5.87;;;5.47;;
14688;SDS011;7432;48.728;9.154;2023-03-13T11:44:27;5.43;;;5.07;;
14688;SDS011;7432;48.728;9.154;2023-03-13T11:47:01;5.77;;;5.37;;
14688;SDS011;7432;48.728;9.154;2023-03-13T11:49:42;6.10;;;5.60;;
14688;SDS011;7432;48.728;9.154;2023-03-13T11:52:37;6.27;;;5.77;;
14688;SDS011;7432;48.728;9.154;2023-03-13T11:55:17;5.67;;;5.30;;
14688;SDS011;7432;48.728;9.154;2023-03-13T11:57:52;5.67;;;5.23;;
14688;SDS011;7432;48.728;9.154;2023-03-13T12:00:30;5.83;;;5.33;;
14688;SDS011;7432;48.728;9.154;2023-03-13T12:03:00;5.40;;;5.00;;
14688;SDS011;7432;48.728;9.154;2023-03-13T12:05:37;6.20;;;5.80;;
14688;SDS011;7432;48.728;9.154;2023-03-13T12:08:12;5.47;;;5.10;;
14688;SDS011;7432;48.728;9.154;2023-03-13T12:10:45;5.93;;;5.40;;
14688;SDS011;7432;48.728;9.154;2023-03-13T12:13:15;6.10;;;5.70;;
14688;SDS011;7432;48.728;9.154;2023-03-13T12:15:47;6.50;;;5.83;;
14688;SDS011;7432;48.728;9.154;2023-03-13T12:18:17;5.33;;;5.03;;
14688;SDS011;7432;48.728;9.154;2023-03-13T12:20:50;5.87;;;5.43;;
14688;SDS011;7432;48.728;9.154;2023-03-13T12:23:22;9.00;;;5.57;;
14688;SDS011;7432;48.728;9.154;2023-03-13T12:25:57;6.27;;;5.77;;
14688;SDS011;7432;48.728;9.154;2023-03-13T12:28:29;6.03;;;5.60;;
14688;SDS011;7432;48.728;9.154;2023-03-13T12:31:03;5.80;;;5.27;;
14688;SDS011;7432;48.728;9.154;2023-03-13T12:33:37;6.70;;;5.47;;
14688;SDS011;7432;48.728;9.154;2023-03-13T12:36:09;5.33;;;5.03;;
14688;SDS011;7432;48.728;9.154;2023-03-13T12:38:41;5.70;;;5.40;;
14688;SDS011;7432;48.728;9.154;2023-03-13T12:41:16;5.73;;;5.33;;
14688;SDS011;7432;48.728;9.154;2023-03-13T12:43:49;6.07;;;5.57;;
14688;SDS011;7432;48.728;9.154;2023-03-13T12:46:21;6.60;;;5.97;;
14688;SDS011;7432;48.728;9.154;2023-03-13T12:49:02;6.17;;;5.67;;
14688;SDS011;7432;48.728;9.154;2023-03-13T12:51:46;5.90;;;5.40;;
14688;SDS011;7432;48.728;9.154;2023-03-13T12:54:30;5.47;;;5.17;;
14688;SDS011;7432;48.728;9.154;2023-03-13T12:57:17;5.53;;;5.13;;
14688;SDS011;7432;48.728;9.154;2023-03-13T12:59:58;6.03;;;5.63;;
14688;SDS011;7432;48.728;9.154;2023-03-13T13:02:29;5.87;;;5.47;;
14688;SDS011;7432;48.728;9.154;2023-03-13T13:04:57;5.90;;;5.40;;
14688;SDS011;7432;48.728;9.154;2023-03-13T13:07:26;6.60;;;5.60;;
14688;SDS011;7432;48.728;9.154;2023-03-13T13:10:01;8.05;;;5.55;;
14688;SDS011;7432;48.728;9.154;2023-03-13T13:12:40;6.30;;;5.80;;
14688;SDS011;7432;48.728;9.154;2023-03-13T13:15:13;6.20;;;5.80;;
14688;SDS011;7432;48.728;9.154;2023-03-13T13:17:49;6.57;;;5.90;;
14688;SDS011;7432;48.728;9.154;2023-03-13T13:20:28;6.47;;;5.90;;
14688;SDS011;7432;48.728;9.154;2023-03-13T13:23:19;6.00;;;5.60;;
14688;SDS011;7432;48.728;9.154;2023-03-13T13:32:40;6.47;;;6.07;;
14688;SDS011;7432;48.728;9.154;2023-03-13T13:35:18;6.43;;;5.93;;
14688;SDS011;7432;48.728;9.154;2023-03-13T13:37:49;6.73;;;6.10;;
14688;SDS011;7432;48.728;9.154;2023-03-13T13:40:17;6.03;;;5.60;;
14688;SDS011;7432;48.728;9.154;2023-03-13T13:42:47;6.70;;;6.10;;
14688;SDS011;7432;48.728;9.154;2023-03-13T13:45:22;6.10;;;5.70;;
14688;SDS011;7432;48.728;9.154;2023-03-13T13:48:12;6.10;;;5.60;;
14688;SDS011;7432;48.728;9.154;2023-03-13T13:53:58;5.83;;;5.50;;
14688;SDS011;7432;48.728;9.154;2023-03-13T13:56:29;5.80;;;5.40;;
14688;SDS011;7432;48.728;9.154;2023-03-13T13:59:01;5.93;;;5.53;;
14688;SDS011;7432;48.728;9.154;2023-03-13T14:01:31;6.15;;;5.65;;
14688;SDS011;7432;48.728;9.154;2023-03-13T14:04:03;6.13;;;5.78;;
14688;SDS011;7432;48.728;9.154;2023-03-13T14:06:36;6.50;;;5.72;;
14688;SDS011;7432;48.728;9.154;2023-03-13T14:09:10;6.15;;;5.35;;
14688;SDS011;7432;48.728;9.154;2023-03-13T14:11:45;5.43;;;5.13;;
14688;SDS011;7432;48.728;9.154;2023-03-13T14:14:13;5.70;;;5.30;;
14688;SDS011;7432;48.728;9.154;2023-03-13T14:16:41;5.82;;;5.53;;
14688;SDS011;7432;48.728;9.154;2023-03-13T14:19:21;5.95;;;5.53;;
14688;SDS011;7432;48.728;9.154;2023-03-13T14:21:49;6.00;;;5.30;;
14688;SDS011;7432;48.728;9.154;2023-03-13T14:24:15;5.20;;;4.90;;
14688;SDS011;7432;48.728;9.154;2023-03-13T14:26:42;6.20;;;5.80;;
14688;SDS011;7432;48.728;9.154;2023-03-13T14:29:14;5.90;;;5.50;;
14688;SDS011;7432;48.728;9.154;2023-03-13T14:31:48;5.97;;;5.47;;
14688;SDS011;7432;48.728;9.154;2023-03-13T14:34:16;5.50;;;5.10;;
14688;SDS011;7432;48.728;9.154;2023-03-13T14:36:47;5.07;;;4.80;;
14688;SDS011;7432;48.728;9.154;2023-03-13T14:39:15;5.82;;;5.53;;
14688;SDS011;7432;48.728;9.154;2023-03-13T14:41:44;5.97;;;5.43;;
14688;SDS011;7432;48.728;9.154;2023-03-13T14:44:13;6.63;;;5.45;;
14688;SDS011;7432;48.728;9.154;2023-03-13T14:46:45;4.10;;;3.80;;
14688;SDS011;7432;48.728;9.154;2023-03-13T14:49:14;5.43;;;5.13;;
14688;SDS011;7432;48.728;9.154;2023-03-13T14:51:42;5.40;;;5.10;;
14688;SDS011;7432;48.728;9.154;2023-03-13T14:54:24;5.50;;;5.10;;
14688;SDS011;7432;48.728;9.154;2023-03-13T14:57:11;5.23;;;4.80;;
14688;SDS011;7432;48.728;9.154;2023-03-13T14:59:40;5.90;;;5.40;;
14688;SDS011;7432;48.728;9.154;2023-03-13T15:02:12;5.60;;;5.30;;
14688;SDS011;7432;48.728;9.154;2023-03-13T15:04:49;5.47;;;5.17;;
14688;SDS011;7432;48.728;9.154;2023-03-13T15:07:16;6.17;;;5.77;;
14688;SDS011;7432;48.728;9.154;2023-03-13T15:09:45;10.03;;;5.17;;
14688;SDS011;7432;48.728;9.154;2023-03-13T15:12:13;6.03;;;5.63;;
14688;SDS011;7432;48.728;9.154;2023-03-13T15:14:41;5.75;;;5.25;;
14688;SDS011;7432;48.728;9.154;2023-03-13T15:17:15;5.72;;;5.32;;
14688;SDS011;7432;48.728;9.154;2023-03-13T15:19:47;5.93;;;5.43;;
14688;SDS011;7432;48.728;9.154;2023-03-13T15:22:15;5.60;;;5.30;;
14688;SDS011;7432;48.728;9.154;2023-03-13T15:24:43;5.50;;;5.20;;
14688;SDS011;7432;48.728;9.154;2023-03-13T15:27:15;5.73;;;5.33;;
14688;SDS011;7432;48.728;9.154;2023-03-13T15:29:42;6.00;;;5.60;;